Dupage Airport
KDPA : now visible

Airfield :











YOU CAN JOIN US ON...

 
LOGIN :

Register | Disclaimer

   EN    FR    IT 

 









Legend :    VFR   Marginal VFR   IFR   Intensive IFR   Very Intensive IFR
Visi :
Ceiling :
>= 8 km
>= 3000ft
5 to 8 km
1000 to 3000 ft
1500m to 5 km
500 to 1000 ft
800 to 1500m
200 to 500 ft
< 800m
< 200 ft
Symbols :   Thunderstorms  Fog  Heavy snow  Heavy precipitations  Wind > 20 kt






- Airport Elevation : 759 ft


KDPA - Dupage

CURRENT METAR :
  • 181052Z 16009KT 2 1/2SM UP BR OVC006 00/M01 A2978 RMK AO2 UPB21FZRAE21 SLP092 P0000 I1001 T00001006

EXPIRED METARs :
  • 181027Z 16010KT 5SM UP BR OVC006 00/M01 A2980 RMK AO2 UPB21FZRAE21 P0000 I1001 T00001006
  • 180952Z 15011KT 5SM -FZRA BR OVC008 00/M01 A2982 RMK AO2 UPE0853FZRAB0853 SLP108 P0008 I1007 T00001011
  • 180945Z 15011KT 7SM -FZRA OVC008 00/M01 A2984 RMK AO2 UPE0853FZRAB0853 P0007 I1005 T00001011
  • 180923Z 14011KT 5SM FZRA BR OVC008 00/M01 A2985 RMK AO2 UPE0853FZRAB0853 CIG 006V011 P0005 I1004 T00001011
  • 180916Z 14014KT 6SM -FZRA BR OVC008 00/M01 A2986 RMK AO2 UPE0853FZRAB0853 CIG 006V012 PRESFR P0004 I1002 T00001011
  • 180859Z 14013KT 5SM FZRA BR OVC008 00/M02 A2988 RMK AO2 UPE53FZRAB53 P0001 I1001 T00001017
  • 180852Z 15012KT 5SM UP BR BKN008 OVC012 00/M02 A2989 RMK AO2 UPB45FZRAE45 SLP129 P0010 60022 I1007 I3018 T00001017 56052
  • 180822Z 14010G19KT 4SM FZRA BR BKN008 OVC012 M01/M02 A2992 RMK AO2 PRESFR P0006 I1005 T10061017

TAF KDPA
Valid from the 18 at 09:00 until the 19 at 06:00 UTC


180900Z 1809/1906 15010KT 3SM FZRA BR OVC007
FM181100 16012KT 5SM -DZ BR OVC006
FM181300 19011G17KT 2SM -RA BR OVC003
TEMPO 1814/1816 3/4SM -DZ BR
FM181600 22013G20KT 5SM -SHRASN BR OVC007
TEMPO 1816/1817 27022G36KT 1 1/2SM -SHSN BR VV007
FM181700 27022G33KT P6SM OVC015
TEMPO 1819/1822 3SM -SHSN



MET'MAP, your aeronautical weather chart ! - Copyright ORBIFLY December 2007 - Disclaimer

ORBIFLY MET'MAP TEAM :

Programming & Development : Alexandra Zaïnal
Concept & original design : Baudouin d'Aumeries
Assistance for programming : Marc-Olivier Méhu
Technical & hardware support : Manuel Goepfert

Contact : metmap@orbifly.com




SOURCES & CREDITS :

   NOAA       Earth
Advisory